Time;durP1;ratioP1;P1;durP2;ratioP2;P2;SDS_P1;SDS_P2;PMS_P1;PMS_P2;Temp;Humidity;BMP_temperature;BMP_pressure;BME280_temperature;BME280_humidity;BME280_pressure;Samples;Min_cycle;Max_cycle;Signal;HPM_P1;HPM_P2
2023/07/18 00:01:36;;;;;;;;;14.25;13.50;;;;;27.74;46.72;100905.06;146614;680;47012;-70
2023/07/18 00:04:37;;;;;;;;;12.75;11.00;;;;;27.80;46.94;100913.88;146620;575;46023;-69
2023/07/18 00:07:32;;;;;;;;;14.00;12.25;;;;;27.82;47.07;100914.75;146613;589;47917;-70
2023/07/18 00:10:29;;;;;;;;;15.25;14.50;;;;;27.87;46.71;100904.00;146612;609;47011;-69
2023/07/18 00:13:20;;;;;;;;;14.25;14.00;;;;;27.87;46.73;100901.31;146616;586;46012;-69
2023/07/18 00:16:14;;;;;;;;;13.50;12.25;;;;;27.89;46.59;100903.97;146619;614;46020;-68
2023/07/18 00:19:12;;;;;;;;;12.25;12.00;;;;;27.83;47.10;100894.31;146611;581;49012;-74
2023/07/18 00:22:08;;;;;;;;;10.50;10.50;;;;;27.83;47.61;100896.97;146619;607;46010;-72
2023/07/18 00:25:01;;;;;;;;;12.50;11.25;;;;;27.90;46.49;100903.94;146620;578;46012;-75
2023/07/18 00:28:12;;;;;;;;;12.00;11.50;;;;;27.90;46.56;100898.59;146620;570;47010;-73
2023/07/18 00:31:10;;;;;;;;;15.25;14.00;;;;;27.95;46.67;100904.75;146612;584;47015;-73
2023/07/18 00:34:15;;;;;;;;;;;;;;;;;;;;;
2023/07/18 00:37:14;;;;;;;;;13.75;12.50;;;;;27.85;46.46;100906.69;146611;589;47915;-74
2023/07/18 00:40:16;;;;;;;;;13.00;13.00;;;;;27.79;46.53;100905.94;146619;682;46020;-72
2023/07/18 00:43:25;;;;;;;;;14.00;13.50;;;;;27.68;46.99;100900.72;146616;591;47014;-73
2023/07/18 00:46:29;;;;;;;;;13.50;12.25;;;;;27.57;47.16;100914.22;146619;565;46020;-75
2023/07/18 00:49:21;;;;;;;;;11.25;10.50;;;;;27.50;47.58;100903.69;146616;577;46016;-72
2023/07/18 00:52:20;;;;;;;;;14.75;13.00;;;;;27.46;47.66;100905.53;146617;573;46020;-75
2023/07/18 00:55:20;;;;;;;;;11.50;10.75;;;;;27.44;47.77;100899.31;146614;633;47012;-74
2023/07/18 00:58:15;;;;;;;;;13.00;13.00;;;;;27.49;47.95;100894.81;146616;633;46020;-73
2023/07/18 01:01:14;;;;;;;;;16.75;14.25;;;;;27.55;47.89;100899.16;146617;690;46012;-75
2023/07/18 01:04:08;;;;;;;;;12.50;12.50;;;;;27.59;47.68;100892.88;146616;734;47010;-77
2023/07/18 01:07:02;;;;;;;;;13.25;12.50;;;;;27.66;47.96;100891.88;146616;644;46016;-74
2023/07/18 01:10:00;;;;;;;;;11.50;10.00;;;;;27.75;47.76;100886.38;146620;615;46021;-69
2023/07/18 01:13:05;;;;;;;;;13.75;13.75;;;;;27.84;47.68;100885.38;146633;594;46012;-68
2023/07/18 01:16:06;;;;;;;;;14.25;13.00;;;;;27.94;46.57;100897.63;146637;672;45035;-69
2023/07/18 01:18:57;;;;;;;;;14.00;13.75;;;;;27.97;46.79;100900.25;146634;565;46012;-70
2023/07/18 01:22:01;;;;;;;;;14.75;12.75;;;;;27.97;46.80;100894.91;146633;708;46010;-71
2023/07/18 01:25:11;;;;;;;;;12.50;11.75;;;;;27.96;46.86;100897.63;146636;650;45013;-69
2023/07/18 01:28:09;;;;;;;;;12.75;12.75;;;;;27.91;46.98;100887.03;146631;596;46010;-71
2023/07/18 01:31:06;;;;;;;;;11.75;11.00;;;;;27.88;46.72;100889.75;146631;583;45916;-71
2023/07/18 01:34:01;;;;;;;;;15.50;13.25;;;;;27.82;47.04;100889.84;146633;587;46010;-74
2023/07/18 01:36:54;;;;;;;;;14.00;12.25;;;;;27.74;47.10;100892.62;146634;611;45016;-70
2023/07/18 01:39:58;;;;;;;;;11.50;11.25;;;;;27.62;47.19;100884.84;146635;571;45021;-74
2023/07/18 01:42:53;;;;;;;;;12.75;11.50;;;;;27.57;47.42;100879.59;146633;719;45916;-75
2023/07/18 01:45:52;;;;;;;;;12.75;12.25;;;;;27.52;47.60;100883.25;146634;564;46020;-74
2023/07/18 01:48:50;;;;;;;;;14.00;13.00;;;;;27.46;48.04;100894.87;146635;578;45031;-75
2023/07/18 01:51:57;;;;;;;;;12.00;12.00;;;;;27.39;47.80;100885.22;146634;574;45020;-75
2023/07/18 01:54:58;;;;;;;;;13.75;13.50;;;;;27.36;47.96;100885.28;146634;671;45917;-74
2023/07/18 01:57:58;;;;;;;;;14.75;14.75;;;;;27.31;48.26;100874.69;146637;693;45020;-75
2023/07/18 02:00:53;;;;;;;;;11.50;11.00;;;;;27.26;48.40;100875.62;146631;614;46033;-75
2023/07/18 02:03:57;;;;;;;;;14.50;14.50;;;;;27.22;48.94;100887.25;146631;583;45020;-74
2023/07/18 02:06:52;;;;;;;;;13.50;13.50;;;;;27.21;49.03;100882.84;146633;573;46012;-76
2023/07/18 02:09:49;;;;;;;;;14.00;13.00;;;;;27.19;48.66;100880.19;146631;577;46010;-74
2023/07/18 02:12:41;;;;;;;;;15.00;14.00;;;;;27.14;48.91;100877.59;146632;574;46915;-76
2023/07/18 02:15:36;;;;;;;;;17.75;16.00;;;;;26.88;48.92;100834.47;146639;631;45022;-75
2023/07/18 02:18:31;;;;;;;;;15.75;12.25;;;;;27.02;49.35;100868.88;146635;579;45916;-74
2023/07/18 02:21:29;;;;;;;;;16.00;15.00;;;;;26.96;49.34;100872.50;146635;573;45010;-74
2023/07/18 02:24:23;;;;;;;;;13.75;12.50;;;;;26.89;49.40;100869.06;146630;652;46017;-75
2023/07/18 02:27:19;;;;;;;;;13.75;12.75;;;;;26.83;49.79;100865.59;146635;563;46010;-71
2023/07/18 02:30:17;;;;;;;;;14.00;14.00;;;;;26.79;49.50;100862.09;146631;652;46016;-71
2023/07/18 02:33:10;;;;;;;;;14.50;12.50;;;;;26.80;50.22;100870.97;146637;583;46010;-70
2023/07/18 02:36:06;;;;;;;;;16.25;13.50;;;;;26.83;50.15;100876.25;146630;602;46012;-72
2023/07/18 02:39:10;;;;;;;;;13.75;13.75;;;;;26.84;50.04;100872.66;146632;602;45028;-71
2023/07/18 02:42:08;;;;;;;;;14.75;14.50;;;;;26.82;50.14;100870.06;146632;584;45016;-71
2023/07/18 02:45:00;;;;;;;;;16.75;15.75;;;;;26.83;50.07;100866.47;146637;634;45020;-71
2023/07/18 02:47:55;;;;;;;;;16.75;16.75;;;;;26.93;50.01;100867.22;146632;579;46916;-71
2023/07/18 02:50:54;;;;;;;;;12.00;12.00;;;;;26.97;50.09;100865.41;146638;592;45020;-72
2023/07/18 02:53:56;;;;;;;;;14.75;13.50;;;;;26.94;50.00;100871.63;146630;598;46012;-69
2023/07/18 02:56:56;;;;;;;;;14.25;13.00;;;;;26.84;49.59;100870.00;146638;655;45010;-74
2023/07/18 02:59:51;;;;;;;;;13.75;12.75;;;;;26.79;49.38;100871.84;146631;605;46017;-72
2023/07/18 03:02:51;;;;;;;;;14.00;13.50;;;;;26.78;49.35;100873.63;146637;578;45010;-71
2023/07/18 03:05:46;;;;;;;;;14.00;12.75;;;;;26.81;49.48;100868.25;146630;577;46016;-72
2023/07/18 03:08:42;;;;;;;;;16.50;15.00;;;;;26.80;49.31;100876.28;146631;749;45010;-71
2023/07/18 03:11:37;;;;;;;;;15.75;15.25;;;;;26.74;49.54;100874.56;146622;676;46014;-71
2023/07/18 03:14:41;;;;;;;;;13.25;13.00;;;;;26.76;49.75;100882.53;146620;566;46011;-71
2023/07/18 03:17:33;;;;;;;;;15.00;14.75;;;;;26.79;49.78;100885.16;146618;574;46012;-70
2023/07/18 03:20:30;;;;;;;;;14.25;14.25;;;;;26.77;49.75;100878.97;146618;630;46020;-71
2023/07/18 03:23:30;;;;;;;;;16.25;15.00;;;;;26.72;52.72;100885.22;146615;606;46017;-70
2023/07/18 03:26:27;;;;;;;;;13.75;13.75;;;;;26.70;53.71;100876.41;146619;586;47010;-72
2023/07/18 03:29:24;;;;;;;;;15.25;13.50;;;;;26.75;53.88;100883.44;146619;634;46012;-73
2023/07/18 03:32:28;;;;;;;;;18.75;15.50;;;;;26.83;54.09;100881.56;146619;598;47019;-72
2023/07/18 03:35:21;;;;;;;;;13.50;13.00;;;;;26.90;55.02;100877.91;146608;641;47016;-71
2023/07/18 03:38:17;;;;;;;;;18.00;16.00;;;;;26.95;55.81;100879.62;146619;569;46913;-70
2023/07/18 03:41:12;;;;;;;;;15.75;15.00;;;;;26.98;54.87;100881.34;146613;565;46012;-71
2023/07/18 03:44:16;;;;;;;;;15.25;14.50;;;;;27.00;54.04;100876.88;146618;577;47010;-71
2023/07/18 03:47:20;;;;;;;;;15.50;13.50;;;;;27.05;52.99;100866.19;146613;626;47014;-76
2023/07/18 03:50:21;;;;;;;;;16.25;14.50;;;;;27.09;53.12;100867.87;146616;706;47010;-74
2023/07/18 03:53:13;;;;;;;;;15.75;15.00;;;;;27.14;54.50;100880.25;146618;674;46017;-74
2023/07/18 03:56:25;;;;;;;;;;;;;;;;;;;;;
2023/07/18 03:59:21;;;;;;;;;18.75;17.75;;;;;27.28;53.67;100881.84;146615;608;46035;-72
2023/07/18 04:02:20;;;;;;;;;17.25;14.25;;;;;27.34;53.91;100879.06;146619;629;46010;-73
2023/07/18 04:05:13;;;;;;;;;18.50;15.25;;;;;27.42;54.30;100874.53;146616;591;46016;-73
2023/07/18 04:08:13;;;;;;;;;11.75;11.50;;;;;27.50;54.24;100877.03;146614;630;46021;-74
2023/07/18 04:11:13;;;;;;;;;14.50;13.75;;;;;27.59;54.50;100882.22;146616;660;46016;-74
2023/07/18 04:14:11;;;;;;;;;14.00;13.25;;;;;27.70;53.78;100887.41;146614;571;47010;-73
2023/07/18 04:17:16;;;;;;;;;13.00;12.00;;;;;27.82;54.61;100887.19;146617;582;46012;-74
2023/07/18 04:19:56;;;;;;;;;12.00;12.00;;;;;27.95;54.71;100891.41;146703;564;45023;-69
2023/07/18 04:22:59;;;;;;;;;13.25;12.75;;;;;28.11;52.49;100891.16;146612;571;46943;-69
2023/07/18 04:26:18;;;;;;;;;17.00;12.50;;;;;27.46;50.94;100753.72;146612;563;47012;-73
2023/07/18 04:29:15;;;;;;;;;14.00;12.00;;;;;28.38;52.45;100889.72;146607;574;46017;-72
2023/07/18 04:32:23;;;;;;;;;16.25;16.25;;;;;28.48;50.50;100886.88;146614;665;47010;-72
2023/07/18 04:35:25;;;;;;;;;16.00;15.00;;;;;28.69;49.69;100890.91;146606;610;47012;-73
2023/07/18 04:38:29;;;;;;;;;13.75;11.50;;;;;28.77;48.69;100891.59;146615;613;47010;-74
2023/07/18 04:41:22;;;;;;;;;14.25;13.50;;;;;28.93;48.63;100897.50;146610;575;46016;-74
2023/07/18 04:44:20;;;;;;;;;15.50;14.00;;;;;29.05;48.46;100901.72;146615;610;46010;-73
2023/07/18 04:47:32;;;;;;;;;15.75;14.00;;;;;29.16;48.01;100889.03;146610;574;47012;-72
2023/07/18 04:50:30;;;;;;;;;13.00;12.50;;;;;29.38;49.09;100897.41;146612;620;46020;-71
2023/07/18 04:53:34;;;;;;;;;14.00;12.25;;;;;29.57;49.26;100895.16;146607;566;48012;-72
2023/07/18 04:56:29;;;;;;;;;12.00;12.00;;;;;29.79;47.94;100898.22;146614;582;46010;-71
2023/07/18 04:59:21;;;;;;;;;13.50;13.00;;;;;29.99;47.59;100896.81;146609;589;46917;-70
2023/07/18 05:02:18;;;;;;;;;14.25;14.25;;;;;30.14;46.48;100901.75;146613;563;46043;-70
2023/07/18 05:05:17;;;;;;;;;15.25;13.75;;;;;30.28;46.53;100904.97;146606;637;48013;-69
2023/07/18 05:08:12;;;;;;;;;16.00;16.00;;;;;30.40;45.41;100900.19;146613;575;46020;-70
2023/07/18 05:11:12;;;;;;;;;15.00;14.50;;;;;30.48;46.08;100904.41;146612;699;46012;-72
2023/07/18 05:14:07;;;;;;;;;13.25;13.25;;;;;30.56;45.88;100904.16;146610;651;47021;-70
2023/07/18 05:17:04;;;;;;;;;13.50;13.50;;;;;30.68;45.36;100914.50;146610;569;46917;-72
2023/07/18 05:20:05;;;;;;;;;14.25;12.75;;;;;30.77;45.80;100906.25;146611;612;46020;-72
2023/07/18 05:23:08;;;;;;;;;14.50;13.75;;;;;30.89;46.16;100902.34;146610;582;46016;-70
2023/07/18 05:26:09;;;;;;;;;14.50;14.50;;;;;31.03;45.53;100913.53;146613;660;47010;-71
2023/07/18 05:29:05;;;;;;;;;15.50;13.25;;;;;31.16;44.79;100907.78;146611;587;46016;-72
2023/07/18 05:32:05;;;;;;;;;18.50;16.00;;;;;31.21;44.46;100903.12;146608;613;47010;-71
2023/07/18 05:35:10;;;;;;;;;;;;;;;;;;;;;
2023/07/18 05:38:05;;;;;;;;;15.25;13.50;;;;;31.54;43.90;100911.94;146613;582;46010;-69
2023/07/18 05:41:01;;;;;;;;;16.00;16.00;;;;;31.69;42.50;100906.06;146608;670;47012;-70
2023/07/18 05:44:02;;;;;;;;;20.75;18.50;;;;;31.75;42.56;100907.69;146611;587;46021;-70
2023/07/18 05:46:58;;;;;;;;;21.25;20.00;;;;;31.80;43.11;100910.19;146611;566;46016;-71
2023/07/18 05:49:57;;;;;;;;;23.75;22.00;;;;;31.87;41.54;100911.72;146612;586;47010;-71
2023/07/18 05:52:51;;;;;;;;;23.50;22.00;;;;;31.93;40.25;100909.78;146611;573;46016;-71
2023/07/18 05:55:49;;;;;;;;;23.00;20.75;;;;;31.95;40.80;100912.38;146611;564;47010;-71
2023/07/18 05:58:42;;;;;;;;;20.75;19.25;;;;;31.96;41.70;100912.34;146610;580;47012;-72
2023/07/18 06:01:37;;;;;;;;;18.50;17.50;;;;;32.03;40.67;100907.63;146615;563;46010;-71
2023/07/18 06:04:31;;;;;;;;;21.00;19.75;;;;;32.06;40.76;100904.84;146608;615;46017;-71
2023/07/18 06:07:25;;;;;;;;;18.25;17.25;;;;;32.07;41.97;100906.59;146615;619;46020;-72
2023/07/18 06:10:20;;;;;;;;;21.00;18.00;;;;;32.09;42.05;100910.09;146611;594;47012;-71
2023/07/18 06:13:23;;;;;;;;;16.75;15.25;;;;;32.17;42.22;100910.69;146609;622;47020;-71
2023/07/18 06:16:18;;;;;;;;;16.75;16.75;;;;;32.30;42.54;100896.84;146611;586;46012;-71
2023/07/18 06:19:16;;;;;;;;;17.50;16.00;;;;;32.38;42.15;100898.31;146614;617;46010;-69
2023/07/18 06:22:18;;;;;;;;;16.75;14.25;;;;;32.43;42.72;100893.69;146612;678;47038;-70
2023/07/18 06:25:24;;;;;;;;;19.75;17.50;;;;;32.45;42.94;100901.69;146612;573;47010;-71
2023/07/18 06:28:19;;;;;;;;;15.00;14.50;;;;;32.51;42.55;100901.47;146612;661;46024;-71
2023/07/18 06:31:16;;;;;;;;;14.25;14.25;;;;;32.63;42.15;100895.63;146612;570;47012;-70
2023/07/18 06:34:23;;;;;;;;;13.50;13.50;;;;;32.70;42.10;100890.91;146611;629;46016;-71
2023/07/18 06:37:18;;;;;;;;;16.75;14.75;;;;;32.78;42.05;100894.19;146612;581;47020;-70
2023/07/18 06:40:24;;;;;;;;;17.00;15.75;;;;;32.09;42.13;100773.31;146609;574;46016;-72
2023/07/18 06:43:18;;;;;;;;;14.25;14.25;;;;;32.86;41.37;100888.50;146613;581;46020;-71
2023/07/18 06:46:21;;;;;;;;;17.75;17.75;;;;;32.88;41.48;100887.50;146612;707;46917;-70
2023/07/18 06:49:23;;;;;;;;;;;;;;;;;;;;;
2023/07/18 06:52:18;;;;;;;;;18.00;17.75;;;;;33.03;40.30;100893.25;146610;604;47012;-71
2023/07/18 06:55:23;;;;;;;;;17.50;16.25;;;;;33.14;40.23;100890.13;146618;618;46010;-71
2023/07/18 06:58:21;;;;;;;;;18.25;16.50;;;;;32.54;40.46;100767.12;146610;582;46017;-73
2023/07/18 07:01:13;;;;;;;;;15.75;15.75;;;;;33.43;40.47;100892.53;146615;604;46010;-71
2023/07/18 07:04:17;;;;;;;;;14.50;12.25;;;;;33.61;40.48;100892.72;146611;579;46016;-72
2023/07/18 07:07:16;;;;;;;;;16.00;14.00;;;;;33.66;39.64;100893.41;146614;566;46026;-71
2023/07/18 07:10:18;;;;;;;;;15.50;13.00;;;;;33.52;40.33;100886.81;146611;577;46017;-72
2023/07/18 07:13:15;;;;;;;;;14.00;12.50;;;;;33.50;39.15;100894.06;146609;592;46020;-73
2023/07/18 07:16:13;;;;;;;;;14.25;14.25;;;;;33.48;39.66;100898.56;146611;565;46918;-72
2023/07/18 07:19:08;;;;;;;;;15.25;14.25;;;;;33.53;39.43;100882.28;146611;587;47010;-71
2023/07/18 07:22:11;;;;;;;;;15.25;15.00;;;;;33.67;38.81;100887.09;146608;570;47014;-72
2023/07/18 07:25:07;;;;;;;;;13.25;13.25;;;;;33.74;38.03;100893.94;146610;577;46030;-71
2023/07/18 07:28:15;;;;;;;;;15.50;14.25;;;;;32.89;36.54;100744.22;146610;781;46012;-73
2023/07/18 07:31:12;;;;;;;;;14.25;14.25;;;;;33.73;36.93;100902.97;146615;565;46010;-72
2023/07/18 07:34:05;;;;;;;;;14.25;14.00;;;;;33.74;37.67;100896.62;146609;605;46017;-72
2023/07/18 07:37:08;;;;;;;;;13.75;13.75;;;;;33.78;35.98;100899.13;146614;658;47029;-71
2023/07/18 07:40:02;;;;;;;;;13.25;11.25;;;;;33.81;35.11;100900.84;146610;685;47918;-72
2023/07/18 07:43:00;;;;;;;;;10.75;10.75;;;;;33.82;36.08;100893.63;146614;633;47020;-73
2023/07/18 07:45:55;;;;;;;;;12.75;11.50;;;;;33.94;36.05;100907.41;146609;668;46918;-72
2023/07/18 07:49:05;;;;;;;;;13.75;13.75;;;;;33.95;35.18;100903.78;146615;575;46021;-72
2023/07/18 07:52:15;;;;;;;;;14.50;12.50;;;;;33.94;33.86;100901.16;146612;573;46012;-72
2023/07/18 07:55:19;;;;;;;;;15.25;12.50;;;;;33.92;35.28;100894.97;146613;577;46011;-72
2023/07/18 07:58:14;;;;;;;;;14.00;12.75;;;;;34.00;35.73;100907.16;146609;589;47012;-72
2023/07/18 08:01:22;;;;;;;;;14.50;13.50;;;;;34.00;35.13;100899.09;146613;569;46020;-72
2023/07/18 08:04:14;;;;;;;;;13.50;11.75;;;;;34.06;35.74;100902.50;146613;645;46012;-73
2023/07/18 08:07:15;;;;;;;;;12.50;10.50;;;;;34.23;34.76;100899.91;146613;582;46020;-73
2023/07/18 08:10:18;;;;;;;;;12.00;11.50;;;;;33.60;36.95;100759.22;146610;565;46920;-73
2023/07/18 08:13:16;;;;;;;;;11.75;11.75;;;;;34.58;34.44;100900.16;146611;565;48010;-71
2023/07/18 08:16:13;;;;;;;;;13.00;13.00;;;;;34.70;34.09;100900.47;146610;601;47012;-73
2023/07/18 08:19:28;;;;;;;;;;;;;;;;;;;;;
2023/07/18 08:22:28;;;;;;;;;10.75;10.00;;;;;34.86;35.65;100906.03;146611;572;46016;-71
2023/07/18 08:25:21;;;;;;;;;14.75;11.75;;;;;34.92;34.58;100902.16;146612;557;46011;-71
2023/07/18 08:28:18;;;;;;;;;14.50;13.25;;;;;34.98;35.85;100903.69;146609;571;46016;-71
2023/07/18 08:31:13;;;;;;;;;11.25;11.25;;;;;34.99;34.41;100902.75;146613;645;46011;-72
2023/07/18 08:34:20;;;;;;;;;13.50;11.25;;;;;34.90;35.10;100902.25;146613;572;46012;-71
2023/07/18 08:37:13;;;;;;;;;12.75;12.25;;;;;34.82;35.16;100892.78;146612;576;46020;-77
2023/07/18 08:40:09;;;;;;;;;12.75;12.75;;;;;34.79;35.58;100892.91;146610;595;46017;-74
2023/07/18 08:43:02;;;;;;;;;10.25;9.25;;;;;34.78;34.50;100894.75;146614;563;46010;-74
2023/07/18 08:46:06;;;;;;;;;12.50;11.25;;;;;34.85;33.88;100898.88;146612;564;48012;-73
2023/07/18 08:49:02;;;;;;;;;10.50;10.25;;;;;34.84;34.57;100889.06;146615;641;48021;-73
2023/07/18 08:52:01;;;;;;;;;13.75;12.00;;;;;34.91;33.37;100895.91;146608;624;48012;-73
2023/07/18 08:55:04;;;;;;;;;12.50;11.00;;;;;34.92;36.21;100880.59;146615;638;46018;-72
2023/07/18 08:57:57;;;;;;;;;8.00;8.00;;;;;34.98;34.37;100887.53;146607;590;47016;-73
2023/07/18 09:00:52;;;;;;;;;11.50;11.00;;;;;35.01;32.08;100882.00;146618;636;46020;-73
2023/07/18 09:03:47;;;;;;;;;11.00;10.50;;;;;35.06;32.20;100880.84;146611;610;47012;-73
2023/07/18 09:06:50;;;;;;;;;11.50;9.25;;;;;35.06;33.95;100880.00;146611;563;47010;-73
2023/07/18 09:10:01;;;;;;;;;10.25;10.00;;;;;35.10;33.93;100877.06;146615;565;47014;-73
2023/07/18 09:12:53;;;;;;;;;10.00;8.75;;;;;35.09;32.06;100877.16;146610;564;46020;-74
2023/07/18 09:15:54;;;;;;;;;14.00;12.00;;;;;34.96;33.33;100868.75;146614;619;46016;-74
2023/07/18 09:19:00;;;;;;;;;11.50;9.25;;;;;34.97;33.68;100865.09;146617;604;46010;-73
2023/07/18 09:22:04;;;;;;;;;12.00;12.00;;;;;35.11;32.37;100854.56;146606;586;47016;-74
2023/07/18 09:25:08;;;;;;;;;10.00;10.00;;;;;35.35;33.65;100862.38;146612;582;46021;-73
2023/07/18 09:28:06;;;;;;;;;13.25;11.50;;;;;35.39;32.36;100854.06;146609;585;46012;-73
2023/07/18 09:30:47;;;;;;;;;12.25;11.00;;;;;35.44;32.63;100852.97;146702;574;46014;-73
2023/07/18 09:33:43;;;;;;;;;11.00;10.00;;;;;35.47;32.34;100856.38;146610;576;46016;-77
2023/07/18 09:36:43;;;;;;;;;9.25;9.25;;;;;35.47;32.25;100845.59;146614;622;46020;-73
2023/07/18 09:39:44;;;;;;;;;12.75;9.25;;;;;35.47;34.41;100852.81;146614;729;46016;-71
2023/07/18 09:42:46;;;;;;;;;12.50;12.50;;;;;35.50;33.64;100852.66;146621;603;47010;-73
2023/07/18 09:45:55;;;;;;;;;13.00;11.00;;;;;35.43;35.28;100852.09;146610;566;47016;-74
2023/07/18 09:48:53;;;;;;;;;14.25;14.00;;;;;35.33;35.56;100854.37;146614;598;46010;-74
2023/07/18 09:52:12;;;;;;;;;13.25;12.00;;;;;35.22;36.11;100854.03;146607;605;47016;-74
2023/07/18 09:55:19;;;;;;;;;10.75;10.75;;;;;35.10;36.81;100860.03;146612;675;46022;-75
2023/07/18 09:58:18;;;;;;;;;12.50;12.25;;;;;34.96;37.27;100851.72;146608;586;47017;-74
2023/07/18 10:01:19;;;;;;;;;12.00;11.00;;;;;34.92;38.43;100845.56;146610;581;47010;-71
2023/07/18 10:04:13;;;;;;;;;14.75;12.00;;;;;34.92;37.89;100843.78;146609;665;47016;-74
2023/07/18 10:07:19;;;;;;;;;12.25;10.25;;;;;34.92;37.70;100841.09;146611;624;47021;-75
2023/07/18 10:10:15;;;;;;;;;9.50;9.25;;;;;34.96;39.29;100847.19;146607;578;46012;-74
2023/07/18 10:13:17;;;;;;;;;13.50;13.00;;;;;34.97;39.02;100842.69;146623;601;46010;-73
2023/07/18 10:16:22;;;;;;;;;12.50;11.25;;;;;35.02;38.86;100843.31;146608;606;46017;-72
2023/07/18 10:19:30;;;;;;;;;12.00;12.00;;;;;35.06;39.11;100832.34;146612;616;46010;-73
2023/07/18 10:22:35;;;;;;;;;11.50;11.25;;;;;35.06;39.58;100823.41;146611;642;47914;-72
2023/07/18 10:25:57;;;;;;;;;13.75;11.75;;;;;35.06;40.17;100826.97;146612;571;46010;-73
2023/07/18 10:28:51;;;;;;;;;12.75;11.00;;;;;35.09;41.05;100820.56;146611;672;46012;-72
2023/07/18 10:31:49;;;;;;;;;14.25;13.00;;;;;35.15;41.43;100820.25;146615;687;46020;-72
2023/07/18 10:35:02;;;;;;;;;14.00;13.25;;;;;35.24;41.10;100814.41;146608;615;47012;-73
2023/07/18 10:38:03;;;;;;;;;13.25;11.50;;;;;35.34;41.38;100815.69;146614;579;46010;-73
2023/07/18 10:41:07;;;;;;;;;11.50;10.50;;;;;35.42;42.14;100809.87;146612;622;46012;-73
2023/07/18 10:44:13;;;;;;;;;13.00;12.75;;;;;35.48;43.04;100808.69;146616;639;46021;-73
2023/07/18 10:47:19;;;;;;;;;10.00;9.25;;;;;35.52;42.33;100811.16;146608;569;47016;-73
2023/07/18 10:50:24;;;;;;;;;10.00;10.00;;;;;35.50;40.79;100801.41;146618;567;47010;-72
2023/07/18 10:53:29;;;;;;;;;16.25;15.75;;;;;35.48;41.94;100804.16;146700;569;46012;-73
2023/07/18 10:56:31;;;;;;;;;12.50;12.25;;;;;35.47;42.59;100801.56;146616;602;46016;-73
2023/07/18 10:59:34;;;;;;;;;12.75;12.75;;;;;35.48;41.76;100798.78;146618;575;46021;-71
2023/07/18 11:02:49;;;;;;;;;14.00;13.00;;;;;35.60;41.74;100808.09;146618;618;46016;-74
2023/07/18 11:05:46;;;;;;;;;13.50;12.50;;;;;35.65;42.04;100797.94;146622;585;46010;-73
2023/07/18 11:08:53;;;;;;;;;12.50;12.25;;;;;35.69;40.77;100804.06;146614;569;46016;-72
2023/07/18 11:12:00;;;;;;;;;11.25;10.50;;;;;35.74;41.06;100793.91;146620;577;46020;-74
2023/07/18 11:14:55;;;;;;;;;14.00;13.00;;;;;35.62;41.78;100795.41;146615;630;47017;-71
2023/07/18 11:17:47;;;;;;;;;15.25;12.75;;;;;35.48;42.56;100789.81;146619;603;46020;-75
2023/07/18 11:20:50;;;;;;;;;13.00;13.00;;;;;35.44;42.42;100791.81;146615;636;46034;-75
2023/07/18 11:23:53;;;;;;;;;12.75;11.50;;;;;34.72;41.86;100658.00;146620;565;46020;-73
2023/07/18 11:26:50;;;;;;;;;13.25;11.25;;;;;35.39;41.65;100772.28;146613;727;47916;-74
2023/07/18 11:30:09;;;;;;;;;14.00;12.75;;;;;35.28;42.31;100783.63;146619;646;46010;-73
2023/07/18 11:33:06;;;;;;;;;15.00;13.00;;;;;35.22;42.81;100773.16;146616;600;46016;-75
2023/07/18 11:36:00;;;;;;;;;14.50;13.75;;;;;35.26;42.89;100774.75;146615;611;47014;-73
2023/07/18 11:39:01;;;;;;;;;13.25;12.00;;;;;35.34;42.85;100777.94;146617;584;46012;-74
2023/07/18 11:42:17;;;;;;;;;16.75;16.00;;;;;35.43;42.28;100770.34;146619;617;46021;-75
2023/07/18 11:45:42;;;;;;;;;10.25;10.00;;;;;35.52;41.05;100759.94;146616;583;46016;-71
2023/07/18 11:48:50;;;;;;;;;10.75;9.75;;;;;35.60;40.99;100762.25;146622;575;46020;-75
2023/07/18 11:52:01;;;;;;;;;13.50;12.50;;;;;35.62;40.86;100746.88;146618;592;46024;-74
2023/07/18 11:54:54;;;;;;;;;15.25;12.50;;;;;35.61;41.01;100748.69;146618;598;47020;-75
2023/07/18 11:57:59;;;;;;;;;12.25;11.25;;;;;35.58;40.96;100754.25;146617;622;46014;-76
2023/07/18 12:00:53;;;;;;;;;13.50;12.75;;;;;35.62;40.58;100747.75;146619;616;46010;-73
2023/07/18 12:03:50;;;;;;;;;13.50;11.75;;;;;35.65;40.67;100760.19;146616;669;46916;-74
2023/07/18 12:06:46;;;;;;;;;14.00;13.75;;;;;35.66;40.89;100753.84;146619;607;46020;-74
2023/07/18 12:09:41;;;;;;;;;14.00;12.25;;;;;35.63;41.30;100754.00;146615;600;46012;-76
2023/07/18 12:12:36;;;;;;;;;9.75;9.75;;;;;35.63;40.79;100752.16;146623;627;46011;-73
2023/07/18 12:15:43;;;;;;;;;11.75;10.75;;;;;35.59;40.46;100745.19;146616;621;46012;-75
2023/07/18 12:18:41;;;;;;;;;11.25;10.00;;;;;35.55;41.17;100742.75;146623;605;45031;-73
2023/07/18 12:21:42;;;;;;;;;13.00;12.50;;;;;35.56;41.09;100753.44;146615;601;46016;-75
2023/07/18 12:24:38;;;;;;;;;13.00;11.75;;;;;35.51;41.18;100754.59;146619;601;46020;-74
2023/07/18 12:27:40;;;;;;;;;13.75;13.75;;;;;35.44;41.21;100751.38;146613;704;48035;-82
2023/07/18 12:30:43;;;;;;;;;12.50;12.50;;;;;35.47;40.78;100756.59;146622;755;46020;-74
2023/07/18 12:33:48;;;;;;;;;14.00;12.75;;;;;35.57;41.25;100749.78;146613;648;46016;-73
2023/07/18 12:36:46;;;;;;;;;10.50;10.50;;;;;35.66;41.89;100748.44;146623;608;46020;-74
2023/07/18 12:39:45;;;;;;;;;13.00;12.25;;;;;35.67;41.39;100747.47;146616;623;47012;-74
2023/07/18 12:42:47;;;;;;;;;14.00;13.75;;;;;35.74;40.59;100746.22;146619;571;46021;-74
2023/07/18 12:45:45;;;;;;;;;11.75;11.75;;;;;35.76;40.91;100741.59;146615;586;46016;-74
2023/07/18 12:48:41;;;;;;;;;10.75;10.75;;;;;35.62;41.00;100736.94;146620;588;46014;-75
2023/07/18 12:51:45;;;;;;;;;10.75;10.75;;;;;35.45;41.62;100736.91;146620;596;46012;-75
2023/07/18 12:55:01;;;;;;;;;11.25;11.25;;;;;34.54;41.87;100589.78;146622;570;47010;-74
2023/07/18 12:57:55;;;;;;;;;12.75;12.00;;;;;35.48;42.38;100738.59;146613;569;46016;-75
2023/07/18 13:00:52;;;;;;;;;10.25;10.25;;;;;35.65;41.51;100733.22;146621;605;46020;-74
2023/07/18 13:03:48;;;;;;;;;13.25;11.50;;;;;35.72;40.93;100728.37;146615;595;47916;-73
2023/07/18 13:06:47;;;;;;;;;13.50;11.75;;;;;35.71;41.29;100730.19;146617;642;47020;-74
2023/07/18 13:09:49;;;;;;;;;8.75;8.75;;;;;35.57;41.67;100732.75;146614;619;46016;-75
2023/07/18 13:12:45;;;;;;;;;13.50;13.25;;;;;35.48;41.67;100728.66;146620;611;46021;-72
2023/07/18 13:15:44;;;;;;;;;11.50;11.50;;;;;35.47;41.53;100717.97;146616;615;46016;-73
2023/07/18 13:18:39;;;;;;;;;11.50;11.00;;;;;35.58;41.28;100716.50;146621;570;46021;-73
2023/07/18 13:21:34;;;;;;;;;10.00;10.00;;;;;35.66;41.18;100710.69;146616;708;46016;-76
2023/07/18 13:24:29;;;;;;;;;14.00;13.50;;;;;35.69;41.20;100705.13;146619;613;46020;-73
2023/07/18 13:27:34;;;;;;;;;11.75;11.75;;;;;35.81;40.60;100717.09;146613;565;46917;-75
2023/07/18 13:30:41;;;;;;;;;13.75;12.50;;;;;35.88;40.59;100707.69;146619;564;46020;-74
2023/07/18 13:33:46;;;;;;;;;13.25;12.75;;;;;35.87;40.70;100699.69;146616;617;46014;-75
2023/07/18 13:36:45;;;;;;;;;12.75;12.00;;;;;35.87;40.22;100695.16;146619;596;46020;-73
2023/07/18 13:39:46;;;;;;;;;11.00;11.00;;;;;35.90;40.28;100703.09;146616;611;46016;-73
2023/07/18 13:42:42;;;;;;;;;12.75;12.25;;;;;34.59;40.19;100479.19;146620;607;46021;-75
2023/07/18 13:45:46;;;;;;;;;10.25;9.75;;;;;35.89;40.16;100700.47;146614;643;48016;-76